sensor_id;sensor_type;location;lat;lon;timestamp;P1;durP1;ratioP1;P2;durP2;ratioP2
25932;SDS011;13731;51.166;4.474;2023-02-11T00:00:16;72.60;;;68.05;;
25932;SDS011;13731;51.166;4.474;2023-02-11T00:02:42;67.25;;;62.85;;
25932;SDS011;13731;51.166;4.474;2023-02-11T00:05:08;68.05;;;63.42;;
25932;SDS011;13731;51.166;4.474;2023-02-11T00:07:35;65.95;;;61.85;;
25932;SDS011;13731;51.166;4.474;2023-02-11T00:10:01;72.05;;;66.25;;
25932;SDS011;13731;51.166;4.474;2023-02-11T00:12:27;66.03;;;61.03;;
25932;SDS011;13731;51.166;4.474;2023-02-11T00:14:53;65.55;;;61.55;;
25932;SDS011;13731;51.166;4.474;2023-02-11T00:17:19;68.03;;;63.35;;
25932;SDS011;13731;51.166;4.474;2023-02-11T00:19:49;67.97;;;63.03;;
25932;SDS011;13731;51.166;4.474;2023-02-11T00:22:16;70.20;;;65.60;;
25932;SDS011;13731;51.166;4.474;2023-02-11T00:24:45;74.15;;;67.95;;
25932;SDS011;13731;51.166;4.474;2023-02-11T00:27:11;80.30;;;74.57;;
25932;SDS011;13731;51.166;4.474;2023-02-11T00:29:37;70.20;;;65.30;;
25932;SDS011;13731;51.166;4.474;2023-02-11T00:32:03;71.13;;;65.70;;
25932;SDS011;13731;51.166;4.474;2023-02-11T00:34:31;74.32;;;68.40;;
25932;SDS011;13731;51.166;4.474;2023-02-11T00:36:57;72.35;;;67.55;;
25932;SDS011;13731;51.166;4.474;2023-02-11T00:39:23;69.32;;;64.50;;
25932;SDS011;13731;51.166;4.474;2023-02-11T00:41:49;71.45;;;66.78;;
25932;SDS011;13731;51.166;4.474;2023-02-11T00:44:16;72.95;;;67.97;;
25932;SDS011;13731;51.166;4.474;2023-02-11T00:46:42;65.97;;;61.50;;
25932;SDS011;13731;51.166;4.474;2023-02-11T00:49:09;80.18;;;74.80;;
25932;SDS011;13731;51.166;4.474;2023-02-11T00:51:35;70.03;;;65.18;;
25932;SDS011;13731;51.166;4.474;2023-02-11T00:54:02;68.07;;;63.13;;
25932;SDS011;13731;51.166;4.474;2023-02-11T00:56:28;69.78;;;65.20;;
25932;SDS011;13731;51.166;4.474;2023-02-11T00:58:54;68.63;;;63.55;;
25932;SDS011;13731;51.166;4.474;2023-02-11T01:01:20;68.95;;;64.10;;
25932;SDS011;13731;51.166;4.474;2023-02-11T01:03:46;67.18;;;61.85;;
25932;SDS011;13731;51.166;4.474;2023-02-11T01:06:13;64.70;;;59.95;;
25932;SDS011;13731;51.166;4.474;2023-02-11T01:08:39;65.93;;;61.03;;
25932;SDS011;13731;51.166;4.474;2023-02-11T01:11:09;69.38;;;64.10;;
25932;SDS011;13731;51.166;4.474;2023-02-11T01:13:38;67.95;;;63.67;;
25932;SDS011;13731;51.166;4.474;2023-02-11T01:16:07;66.20;;;61.53;;
25932;SDS011;13731;51.166;4.474;2023-02-11T01:18:35;63.17;;;59.05;;
25932;SDS011;13731;51.166;4.474;2023-02-11T01:21:01;69.88;;;65.75;;
25932;SDS011;13731;51.166;4.474;2023-02-11T01:23:28;61.97;;;57.35;;
25932;SDS011;13731;51.166;4.474;2023-02-11T01:25:54;67.97;;;63.15;;
25932;SDS011;13731;51.166;4.474;2023-02-11T01:28:24;66.35;;;61.70;;
25932;SDS011;13731;51.166;4.474;2023-02-11T01:30:52;69.85;;;65.25;;
25932;SDS011;13731;51.166;4.474;2023-02-11T01:33:19;65.70;;;61.05;;
25932;SDS011;13731;51.166;4.474;2023-02-11T01:35:46;61.40;;;57.30;;
25932;SDS011;13731;51.166;4.474;2023-02-11T01:38:15;68.28;;;62.80;;
25932;SDS011;13731;51.166;4.474;2023-02-11T01:40:57;64.60;;;60.17;;
25932;SDS011;13731;51.166;4.474;2023-02-11T01:43:30;63.25;;;59.03;;
25932;SDS011;13731;51.166;4.474;2023-02-11T01:51:47;53.20;;;49.47;;
25932;SDS011;13731;51.166;4.474;2023-02-11T01:54:20;58.40;;;54.03;;
25932;SDS011;13731;51.166;4.474;2023-02-11T01:57:07;61.78;;;57.90;;
25932;SDS011;13731;51.166;4.474;2023-02-11T02:05:09;78.43;;;73.43;;
25932;SDS011;13731;51.166;4.474;2023-02-11T02:08:10;63.03;;;58.42;;
25932;SDS011;13731;51.166;4.474;2023-02-11T02:10:45;64.90;;;59.97;;
25932;SDS011;13731;51.166;4.474;2023-02-11T02:13:15;65.82;;;61.85;;
25932;SDS011;13731;51.166;4.474;2023-02-11T02:15:51;71.43;;;66.25;;
25932;SDS011;13731;51.166;4.474;2023-02-11T02:18:27;62.42;;;58.45;;
25932;SDS011;13731;51.166;4.474;2023-02-11T02:24:36;65.55;;;61.25;;
25932;SDS011;13731;51.166;4.474;2023-02-11T02:35:44;59.90;;;56.13;;
25932;SDS011;13731;51.166;4.474;2023-02-11T02:41:05;70.75;;;65.75;;
25932;SDS011;13731;51.166;4.474;2023-02-11T02:43:39;63.58;;;58.97;;
25932;SDS011;13731;51.166;4.474;2023-02-11T02:46:15;66.00;;;61.65;;
25932;SDS011;13731;51.166;4.474;2023-02-11T02:48:47;64.82;;;60.83;;
25932;SDS011;13731;51.166;4.474;2023-02-11T03:04:54;66.40;;;61.83;;
25932;SDS011;13731;51.166;4.474;2023-02-11T03:07:26;70.85;;;65.82;;
25932;SDS011;13731;51.166;4.474;2023-02-11T03:12:33;65.80;;;61.13;;
25932;SDS011;13731;51.166;4.474;2023-02-11T03:15:00;63.67;;;58.97;;
25932;SDS011;13731;51.166;4.474;2023-02-11T03:17:29;61.38;;;57.20;;
25932;SDS011;13731;51.166;4.474;2023-02-11T03:19:57;66.23;;;61.13;;
25932;SDS011;13731;51.166;4.474;2023-02-11T03:22:26;66.05;;;61.20;;
25932;SDS011;13731;51.166;4.474;2023-02-11T03:24:57;66.18;;;61.90;;
25932;SDS011;13731;51.166;4.474;2023-02-11T03:27:35;65.35;;;61.00;;
25932;SDS011;13731;51.166;4.474;2023-02-11T03:30:32;69.13;;;64.35;;
25932;SDS011;13731;51.166;4.474;2023-02-11T03:33:04;68.13;;;64.00;;
25932;SDS011;13731;51.166;4.474;2023-02-11T03:38:04;65.30;;;60.30;;
25932;SDS011;13731;51.166;4.474;2023-02-11T03:40:35;63.00;;;58.83;;
25932;SDS011;13731;51.166;4.474;2023-02-11T03:43:07;66.33;;;61.53;;
25932;SDS011;13731;51.166;4.474;2023-02-11T03:45:45;68.82;;;64.13;;
25932;SDS011;13731;51.166;4.474;2023-02-11T03:48:15;63.90;;;59.03;;
25932;SDS011;13731;51.166;4.474;2023-02-11T03:50:45;66.07;;;61.28;;
25932;SDS011;13731;51.166;4.474;2023-02-11T03:53:14;64.47;;;59.85;;
25932;SDS011;13731;51.166;4.474;2023-02-11T03:55:41;63.33;;;58.88;;
25932;SDS011;13731;51.166;4.474;2023-02-11T03:58:09;65.82;;;60.42;;
25932;SDS011;13731;51.166;4.474;2023-02-11T04:00:37;64.10;;;59.85;;
25932;SDS011;13731;51.166;4.474;2023-02-11T04:03:05;62.83;;;58.25;;
25932;SDS011;13731;51.166;4.474;2023-02-11T04:05:32;63.67;;;59.28;;
25932;SDS011;13731;51.166;4.474;2023-02-11T04:07:58;60.38;;;55.63;;
25932;SDS011;13731;51.166;4.474;2023-02-11T04:10:24;63.50;;;59.13;;
25932;SDS011;13731;51.166;4.474;2023-02-11T04:12:50;64.57;;;59.70;;
25932;SDS011;13731;51.166;4.474;2023-02-11T04:15:16;61.13;;;57.08;;
25932;SDS011;13731;51.166;4.474;2023-02-11T04:17:42;62.53;;;57.75;;
25932;SDS011;13731;51.166;4.474;2023-02-11T04:20:08;63.63;;;58.88;;
25932;SDS011;13731;51.166;4.474;2023-02-11T04:22:34;64.75;;;59.92;;
25932;SDS011;13731;51.166;4.474;2023-02-11T04:25:02;64.38;;;59.63;;
25932;SDS011;13731;51.166;4.474;2023-02-11T04:27:28;63.25;;;57.70;;
25932;SDS011;13731;51.166;4.474;2023-02-11T04:29:54;67.25;;;62.40;;
25932;SDS011;13731;51.166;4.474;2023-02-11T04:32:20;63.47;;;59.15;;
25932;SDS011;13731;51.166;4.474;2023-02-11T04:34:46;68.10;;;63.60;;
25932;SDS011;13731;51.166;4.474;2023-02-11T04:37:12;71.35;;;66.63;;
25932;SDS011;13731;51.166;4.474;2023-02-11T04:39:38;63.67;;;59.20;;
25932;SDS011;13731;51.166;4.474;2023-02-11T04:42:04;63.45;;;58.95;;
25932;SDS011;13731;51.166;4.474;2023-02-11T04:44:30;70.03;;;64.10;;
25932;SDS011;13731;51.166;4.474;2023-02-11T04:46:56;75.78;;;70.88;;
25932;SDS011;13731;51.166;4.474;2023-02-11T04:49:22;63.60;;;58.35;;
25932;SDS011;13731;51.166;4.474;2023-02-11T04:51:48;102.70;;;95.07;;
25932;SDS011;13731;51.166;4.474;2023-02-11T04:54:14;64.63;;;60.17;;
25932;SDS011;13731;51.166;4.474;2023-02-11T04:56:40;68.50;;;63.42;;
25932;SDS011;13731;51.166;4.474;2023-02-11T04:59:07;71.88;;;66.57;;
25932;SDS011;13731;51.166;4.474;2023-02-11T05:01:33;67.60;;;62.40;;
25932;SDS011;13731;51.166;4.474;2023-02-11T05:03:59;69.05;;;64.25;;
25932;SDS011;13731;51.166;4.474;2023-02-11T05:06:25;70.70;;;65.45;;
25932;SDS011;13731;51.166;4.474;2023-02-11T05:08:51;74.18;;;68.95;;
25932;SDS011;13731;51.166;4.474;2023-02-11T05:11:17;76.10;;;70.57;;
25932;SDS011;13731;51.166;4.474;2023-02-11T05:13:45;76.80;;;71.13;;
25932;SDS011;13731;51.166;4.474;2023-02-11T05:16:11;75.57;;;69.90;;
25932;SDS011;13731;51.166;4.474;2023-02-11T05:18:38;78.63;;;73.20;;
25932;SDS011;13731;51.166;4.474;2023-02-11T05:21:09;94.57;;;88.32;;
25932;SDS011;13731;51.166;4.474;2023-02-11T05:23:37;78.20;;;72.30;;
25932;SDS011;13731;51.166;4.474;2023-02-11T05:26:03;84.15;;;78.20;;
25932;SDS011;13731;51.166;4.474;2023-02-11T05:28:30;80.32;;;74.78;;
25932;SDS011;13731;51.166;4.474;2023-02-11T05:30:56;76.53;;;71.32;;
25932;SDS011;13731;51.166;4.474;2023-02-11T05:33:22;72.45;;;66.97;;
25932;SDS011;13731;51.166;4.474;2023-02-11T05:35:48;71.75;;;66.68;;
25932;SDS011;13731;51.166;4.474;2023-02-11T05:38:14;73.95;;;68.68;;
25932;SDS011;13731;51.166;4.474;2023-02-11T05:40:40;76.70;;;70.97;;
25932;SDS011;13731;51.166;4.474;2023-02-11T05:43:06;75.82;;;70.28;;
25932;SDS011;13731;51.166;4.474;2023-02-11T05:45:33;75.13;;;69.75;;
25932;SDS011;13731;51.166;4.474;2023-02-11T05:47:59;78.80;;;73.18;;
25932;SDS011;13731;51.166;4.474;2023-02-11T05:50:25;77.90;;;72.53;;
25932;SDS011;13731;51.166;4.474;2023-02-11T05:52:51;79.28;;;73.53;;
25932;SDS011;13731;51.166;4.474;2023-02-11T05:55:17;77.50;;;71.95;;
25932;SDS011;13731;51.166;4.474;2023-02-11T05:57:43;75.35;;;69.53;;
25932;SDS011;13731;51.166;4.474;2023-02-11T06:00:09;80.00;;;74.80;;
25932;SDS011;13731;51.166;4.474;2023-02-11T06:02:38;77.90;;;72.53;;
25932;SDS011;13731;51.166;4.474;2023-02-11T06:05:04;74.90;;;69.55;;
25932;SDS011;13731;51.166;4.474;2023-02-11T06:07:30;78.07;;;72.05;;
25932;SDS011;13731;51.166;4.474;2023-02-11T06:09:56;74.30;;;68.97;;
25932;SDS011;13731;51.166;4.474;2023-02-11T06:12:23;79.93;;;74.13;;
25932;SDS011;13731;51.166;4.474;2023-02-11T06:14:49;78.75;;;72.68;;
25932;SDS011;13731;51.166;4.474;2023-02-11T06:17:14;72.93;;;66.95;;
25932;SDS011;13731;51.166;4.474;2023-02-11T06:19:40;72.03;;;66.72;;
25932;SDS011;13731;51.166;4.474;2023-02-11T06:22:06;75.82;;;69.78;;
25932;SDS011;13731;51.166;4.474;2023-02-11T06:24:32;74.20;;;68.65;;
25932;SDS011;13731;51.166;4.474;2023-02-11T06:26:58;73.35;;;68.30;;
25932;SDS011;13731;51.166;4.474;2023-02-11T06:29:24;75.72;;;69.72;;
25932;SDS011;13731;51.166;4.474;2023-02-11T06:31:49;73.82;;;68.15;;
25932;SDS011;13731;51.166;4.474;2023-02-11T06:34:15;77.38;;;72.03;;
25932;SDS011;13731;51.166;4.474;2023-02-11T06:36:41;80.55;;;74.40;;
25932;SDS011;13731;51.166;4.474;2023-02-11T06:39:08;73.00;;;67.45;;
25932;SDS011;13731;51.166;4.474;2023-02-11T06:41:35;82.43;;;76.65;;
25932;SDS011;13731;51.166;4.474;2023-02-11T06:44:02;73.93;;;68.05;;
25932;SDS011;13731;51.166;4.474;2023-02-11T06:46:28;78.53;;;72.65;;
25932;SDS011;13731;51.166;4.474;2023-02-11T06:48:54;75.13;;;69.22;;
25932;SDS011;13731;51.166;4.474;2023-02-11T06:51:20;74.15;;;68.32;;
25932;SDS011;13731;51.166;4.474;2023-02-11T06:53:46;75.72;;;69.93;;
25932;SDS011;13731;51.166;4.474;2023-02-11T06:56:16;74.97;;;69.45;;
25932;SDS011;13731;51.166;4.474;2023-02-11T06:58:45;72.22;;;67.07;;
25932;SDS011;13731;51.166;4.474;2023-02-11T07:01:12;77.53;;;71.95;;
25932;SDS011;13731;51.166;4.474;2023-02-11T07:03:41;77.43;;;71.25;;
25932;SDS011;13731;51.166;4.474;2023-02-11T07:06:10;78.13;;;72.45;;
25932;SDS011;13731;51.166;4.474;2023-02-11T07:08:38;80.15;;;73.97;;
25932;SDS011;13731;51.166;4.474;2023-02-11T07:11:25;77.80;;;71.55;;
25932;SDS011;13731;51.166;4.474;2023-02-11T07:13:53;83.72;;;77.10;;
25932;SDS011;13731;51.166;4.474;2023-02-11T07:16:23;79.70;;;74.00;;
25932;SDS011;13731;51.166;4.474;2023-02-11T07:18:49;78.88;;;72.45;;
25932;SDS011;13731;51.166;4.474;2023-02-11T07:21:16;77.10;;;71.47;;
25932;SDS011;13731;51.166;4.474;2023-02-11T07:23:44;77.88;;;72.13;;
25932;SDS011;13731;51.166;4.474;2023-02-11T07:26:12;82.78;;;76.00;;
25932;SDS011;13731;51.166;4.474;2023-02-11T07:28:40;81.25;;;74.78;;
25932;SDS011;13731;51.166;4.474;2023-02-11T07:31:10;79.75;;;73.43;;
25932;SDS011;13731;51.166;4.474;2023-02-11T07:33:38;82.10;;;75.47;;
25932;SDS011;13731;51.166;4.474;2023-02-11T07:36:05;76.45;;;70.28;;
25932;SDS011;13731;51.166;4.474;2023-02-11T07:38:33;80.13;;;73.20;;
25932;SDS011;13731;51.166;4.474;2023-02-11T07:41:00;76.00;;;69.65;;
25932;SDS011;13731;51.166;4.474;2023-02-11T07:43:28;72.70;;;66.82;;
25932;SDS011;13731;51.166;4.474;2023-02-11T07:45:55;68.80;;;63.08;;
25932;SDS011;13731;51.166;4.474;2023-02-11T07:48:21;75.65;;;69.25;;
25932;SDS011;13731;51.166;4.474;2023-02-11T07:50:46;71.78;;;65.75;;
25932;SDS011;13731;51.166;4.474;2023-02-11T07:53:12;80.97;;;73.72;;
25932;SDS011;13731;51.166;4.474;2023-02-11T07:55:38;76.00;;;69.40;;
25932;SDS011;13731;51.166;4.474;2023-02-11T07:58:04;76.43;;;70.15;;
25932;SDS011;13731;51.166;4.474;2023-02-11T08:00:30;79.55;;;72.18;;
25932;SDS011;13731;51.166;4.474;2023-02-11T08:02:56;77.15;;;70.20;;
25932;SDS011;13731;51.166;4.474;2023-02-11T08:05:22;79.78;;;72.88;;
25932;SDS011;13731;51.166;4.474;2023-02-11T08:07:51;80.07;;;73.35;;
25932;SDS011;13731;51.166;4.474;2023-02-11T08:10:18;79.53;;;72.43;;
25932;SDS011;13731;51.166;4.474;2023-02-11T08:12:44;82.88;;;75.70;;
25932;SDS011;13731;51.166;4.474;2023-02-11T08:15:10;81.90;;;74.40;;
25932;SDS011;13731;51.166;4.474;2023-02-11T08:17:36;76.47;;;69.43;;
25932;SDS011;13731;51.166;4.474;2023-02-11T08:20:03;71.70;;;65.43;;
25932;SDS011;13731;51.166;4.474;2023-02-11T08:22:30;78.70;;;71.70;;
25932;SDS011;13731;51.166;4.474;2023-02-11T08:24:56;77.25;;;69.57;;
25932;SDS011;13731;51.166;4.474;2023-02-11T08:27:22;74.07;;;67.15;;
25932;SDS011;13731;51.166;4.474;2023-02-11T08:29:50;79.60;;;71.95;;
25932;SDS011;13731;51.166;4.474;2023-02-11T08:32:18;82.25;;;75.00;;
25932;SDS011;13731;51.166;4.474;2023-02-11T08:34:45;83.55;;;76.38;;
25932;SDS011;13731;51.166;4.474;2023-02-11T08:37:10;82.57;;;75.28;;
25932;SDS011;13731;51.166;4.474;2023-02-11T08:39:36;85.47;;;77.10;;
25932;SDS011;13731;51.166;4.474;2023-02-11T08:42:02;85.68;;;77.28;;
25932;SDS011;13731;51.166;4.474;2023-02-11T08:44:28;86.97;;;79.00;;
25932;SDS011;13731;51.166;4.474;2023-02-11T08:46:54;81.85;;;74.30;;
25932;SDS011;13731;51.166;4.474;2023-02-11T08:49:20;91.35;;;82.47;;
25932;SDS011;13731;51.166;4.474;2023-02-11T08:51:46;94.82;;;86.10;;
25932;SDS011;13731;51.166;4.474;2023-02-11T08:54:13;85.55;;;77.15;;
25932;SDS011;13731;51.166;4.474;2023-02-11T08:56:40;87.20;;;79.15;;
25932;SDS011;13731;51.166;4.474;2023-02-11T08:59:06;86.57;;;77.40;;
25932;SDS011;13731;51.166;4.474;2023-02-11T09:01:33;83.63;;;75.35;;
25932;SDS011;13731;51.166;4.474;2023-02-11T09:03:59;84.30;;;76.60;;
25932;SDS011;13731;51.166;4.474;2023-02-11T09:06:25;78.63;;;70.88;;
25932;SDS011;13731;51.166;4.474;2023-02-11T09:08:52;80.65;;;72.28;;
25932;SDS011;13731;51.166;4.474;2023-02-11T09:11:21;79.10;;;71.25;;
25932;SDS011;13731;51.166;4.474;2023-02-11T09:13:51;85.85;;;78.07;;
25932;SDS011;13731;51.166;4.474;2023-02-11T09:16:28;80.07;;;72.22;;
25932;SDS011;13731;51.166;4.474;2023-02-11T09:18:55;76.47;;;69.20;;
25932;SDS011;13731;51.166;4.474;2023-02-11T09:21:22;82.35;;;74.53;;
25932;SDS011;13731;51.166;4.474;2023-02-11T09:23:48;86.28;;;77.70;;
25932;SDS011;13731;51.166;4.474;2023-02-11T09:26:15;79.90;;;72.22;;
25932;SDS011;13731;51.166;4.474;2023-02-11T09:28:43;81.03;;;72.80;;
25932;SDS011;13731;51.166;4.474;2023-02-11T09:31:10;86.30;;;78.25;;
25932;SDS011;13731;51.166;4.474;2023-02-11T09:33:39;79.70;;;71.78;;
25932;SDS011;13731;51.166;4.474;2023-02-11T09:36:12;79.32;;;71.10;;
25932;SDS011;13731;51.166;4.474;2023-02-11T09:38:41;83.10;;;74.80;;
25932;SDS011;13731;51.166;4.474;2023-02-11T09:41:24;84.95;;;76.70;;
25932;SDS011;13731;51.166;4.474;2023-02-11T09:44:22;94.65;;;84.82;;
25932;SDS011;13731;51.166;4.474;2023-02-11T09:46:55;96.85;;;87.50;;
25932;SDS011;13731;51.166;4.474;2023-02-11T09:49:26;87.55;;;78.05;;
25932;SDS011;13731;51.166;4.474;2023-02-11T09:54:55;80.18;;;72.05;;
25932;SDS011;13731;51.166;4.474;2023-02-11T09:57:33;82.50;;;73.88;;
25932;SDS011;13731;51.166;4.474;2023-02-11T10:00:00;90.25;;;80.72;;
25932;SDS011;13731;51.166;4.474;2023-02-11T10:08:07;86.13;;;77.55;;
25932;SDS011;13731;51.166;4.474;2023-02-11T10:24:01;86.68;;;77.65;;
25932;SDS011;13731;51.166;4.474;2023-02-11T10:26:34;81.07;;;72.80;;
25932;SDS011;13731;51.166;4.474;2023-02-11T10:29:05;91.63;;;81.97;;
25932;SDS011;13731;51.166;4.474;2023-02-11T10:31:59;91.03;;;82.43;;
25932;SDS011;13731;51.166;4.474;2023-02-11T10:34:29;93.88;;;84.53;;
25932;SDS011;13731;51.166;4.474;2023-02-11T10:36:54;85.68;;;77.07;;
25932;SDS011;13731;51.166;4.474;2023-02-11T10:39:21;101.22;;;91.95;;
25932;SDS011;13731;51.166;4.474;2023-02-11T10:41:51;90.80;;;82.47;;
25932;SDS011;13731;51.166;4.474;2023-02-11T10:44:22;99.95;;;90.93;;
25932;SDS011;13731;51.166;4.474;2023-02-11T10:46:54;121.95;;;112.22;;
25932;SDS011;13731;51.166;4.474;2023-02-11T10:49:35;117.43;;;107.60;;
25932;SDS011;13731;51.166;4.474;2023-02-11T10:55:00;124.60;;;114.78;;
25932;SDS011;13731;51.166;4.474;2023-02-11T10:58:00;115.18;;;105.75;;
25932;SDS011;13731;51.166;4.474;2023-02-11T11:00:43;124.85;;;115.35;;
25932;SDS011;13731;51.166;4.474;2023-02-11T11:03:21;120.55;;;110.80;;
25932;SDS011;13731;51.166;4.474;2023-02-11T11:08:16;125.13;;;115.25;;
25932;SDS011;13731;51.166;4.474;2023-02-11T11:10:47;148.18;;;137.05;;
25932;SDS011;13731;51.166;4.474;2023-02-11T11:13:29;139.75;;;129.65;;
25932;SDS011;13731;51.166;4.474;2023-02-11T11:16:05;130.05;;;120.28;;
25932;SDS011;13731;51.166;4.474;2023-02-11T11:18:32;157.27;;;145.38;;
25932;SDS011;13731;51.166;4.474;2023-02-11T11:20:58;135.55;;;125.18;;
25932;SDS011;13731;51.166;4.474;2023-02-11T11:23:27;144.98;;;133.63;;
25932;SDS011;13731;51.166;4.474;2023-02-11T11:26:13;149.90;;;138.93;;
25932;SDS011;13731;51.166;4.474;2023-02-11T11:28:50;137.75;;;127.18;;
25932;SDS011;13731;51.166;4.474;2023-02-11T11:31:44;131.85;;;121.45;;
25932;SDS011;13731;51.166;4.474;2023-02-11T11:34:22;148.18;;;136.48;;
25932;SDS011;13731;51.166;4.474;2023-02-11T11:36:53;142.95;;;132.00;;
25932;SDS011;13731;51.166;4.474;2023-02-11T11:39:26;152.30;;;140.82;;
25932;SDS011;13731;51.166;4.474;2023-02-11T11:41:55;142.65;;;131.80;;
25932;SDS011;13731;51.166;4.474;2023-02-11T11:44:41;143.10;;;132.50;;
25932;SDS011;13731;51.166;4.474;2023-02-11T11:55:10;150.43;;;138.70;;
25932;SDS011;13731;51.166;4.474;2023-02-11T12:00:03;121.95;;;112.20;;
25932;SDS011;13731;51.166;4.474;2023-02-11T12:14:01;157.55;;;145.95;;
25932;SDS011;13731;51.166;4.474;2023-02-11T12:17:02;168.38;;;156.73;;
25932;SDS011;13731;51.166;4.474;2023-02-11T12:20:11;147.93;;;136.68;;
25932;SDS011;13731;51.166;4.474;2023-02-11T12:28:50;156.50;;;144.90;;
25932;SDS011;13731;51.166;4.474;2023-02-11T12:31:48;147.77;;;136.73;;
25932;SDS011;13731;51.166;4.474;2023-02-11T12:37:17;151.77;;;141.07;;
25932;SDS011;13731;51.166;4.474;2023-02-11T12:39:49;152.50;;;141.25;;
25932;SDS011;13731;51.166;4.474;2023-02-11T12:46:07;151.82;;;140.80;;
25932;SDS011;13731;51.166;4.474;2023-02-11T12:51:06;157.55;;;146.05;;
25932;SDS011;13731;51.166;4.474;2023-02-11T12:54:13;155.38;;;143.18;;
25932;SDS011;13731;51.166;4.474;2023-02-11T13:02:38;151.07;;;139.95;;
25932;SDS011;13731;51.166;4.474;2023-02-11T13:08:13;149.38;;;138.10;;
25932;SDS011;13731;51.166;4.474;2023-02-11T13:10:58;160.13;;;149.27;;
25932;SDS011;13731;51.166;4.474;2023-02-11T13:13:46;163.57;;;151.70;;
25932;SDS011;13731;51.166;4.474;2023-02-11T13:19:29;160.00;;;148.70;;
25932;SDS011;13731;51.166;4.474;2023-02-11T13:37:51;142.57;;;132.48;;
25932;SDS011;13731;51.166;4.474;2023-02-11T13:45:28;154.23;;;143.40;;
25932;SDS011;13731;51.166;4.474;2023-02-11T13:50:45;148.73;;;138.88;;
25932;SDS011;13731;51.166;4.474;2023-02-11T13:53:13;145.05;;;135.45;;
25932;SDS011;13731;51.166;4.474;2023-02-11T13:55:42;144.93;;;134.60;;
25932;SDS011;13731;51.166;4.474;2023-02-11T14:00:57;144.05;;;133.52;;
25932;SDS011;13731;51.166;4.474;2023-02-11T14:03:27;146.13;;;135.48;;
25932;SDS011;13731;51.166;4.474;2023-02-11T14:06:20;143.00;;;133.13;;
25932;SDS011;13731;51.166;4.474;2023-02-11T14:14:17;144.73;;;134.70;;
25932;SDS011;13731;51.166;4.474;2023-02-11T14:22:11;151.70;;;140.75;;
25932;SDS011;13731;51.166;4.474;2023-02-11T14:25:03;148.80;;;138.32;;
25932;SDS011;13731;51.166;4.474;2023-02-11T14:37:49;160.70;;;148.70;;
25932;SDS011;13731;51.166;4.474;2023-02-11T14:41:03;151.50;;;140.60;;
25932;SDS011;13731;51.166;4.474;2023-02-11T14:43:10;157.73;;;146.73;;
25932;SDS011;13731;51.166;4.474;2023-02-11T14:45:40;154.88;;;143.20;;
25932;SDS011;13731;51.166;4.474;2023-02-11T14:48:14;154.65;;;143.32;;
25932;SDS011;13731;51.166;4.474;2023-02-11T14:50:48;148.32;;;137.00;;
25932;SDS011;13731;51.166;4.474;2023-02-11T14:53:31;150.70;;;139.60;;
25932;SDS011;13731;51.166;4.474;2023-02-11T14:55:58;154.73;;;143.30;;
25932;SDS011;13731;51.166;4.474;2023-02-11T14:58:27;147.23;;;136.23;;
25932;SDS011;13731;51.166;4.474;2023-02-11T15:00:56;148.65;;;137.90;;
25932;SDS011;13731;51.166;4.474;2023-02-11T15:06:04;145.80;;;134.32;;
25932;SDS011;13731;51.166;4.474;2023-02-11T15:08:46;151.77;;;140.63;;
25932;SDS011;13731;51.166;4.474;2023-02-11T15:11:25;147.15;;;136.27;;
25932;SDS011;13731;51.166;4.474;2023-02-11T15:13:55;153.63;;;141.65;;
25932;SDS011;13731;51.166;4.474;2023-02-11T15:16:25;162.60;;;151.32;;
25932;SDS011;13731;51.166;4.474;2023-02-11T15:18:57;147.95;;;136.70;;
25932;SDS011;13731;51.166;4.474;2023-02-11T15:21:27;164.70;;;152.63;;
25932;SDS011;13731;51.166;4.474;2023-02-11T15:23:56;149.07;;;138.10;;
25932;SDS011;13731;51.166;4.474;2023-02-11T15:26:24;157.75;;;146.40;;
25932;SDS011;13731;51.166;4.474;2023-02-11T15:28:50;145.30;;;134.25;;
25932;SDS011;13731;51.166;4.474;2023-02-11T15:31:23;148.93;;;137.73;;
25932;SDS011;13731;51.166;4.474;2023-02-11T15:33:50;153.23;;;141.60;;
25932;SDS011;13731;51.166;4.474;2023-02-11T15:36:18;141.10;;;130.45;;
25932;SDS011;13731;51.166;4.474;2023-02-11T15:39:14;148.05;;;137.18;;
25932;SDS011;13731;51.166;4.474;2023-02-11T15:41:41;150.30;;;138.85;;
25932;SDS011;13731;51.166;4.474;2023-02-11T15:44:25;160.05;;;147.85;;
25932;SDS011;13731;51.166;4.474;2023-02-11T15:46:52;149.70;;;138.00;;
25932;SDS011;13731;51.166;4.474;2023-02-11T15:49:18;147.73;;;136.85;;
25932;SDS011;13731;51.166;4.474;2023-02-11T15:51:45;150.00;;;139.13;;
25932;SDS011;13731;51.166;4.474;2023-02-11T15:54:15;145.43;;;134.65;;
25932;SDS011;13731;51.166;4.474;2023-02-11T15:56:49;143.60;;;132.68;;
25932;SDS011;13731;51.166;4.474;2023-02-11T15:59:29;136.55;;;125.72;;
25932;SDS011;13731;51.166;4.474;2023-02-11T16:02:08;156.00;;;144.55;;
25932;SDS011;13731;51.166;4.474;2023-02-11T16:04:53;148.45;;;137.02;;
25932;SDS011;13731;51.166;4.474;2023-02-11T16:07:37;146.70;;;135.30;;
25932;SDS011;13731;51.166;4.474;2023-02-11T16:18:02;146.23;;;136.02;;
25932;SDS011;13731;51.166;4.474;2023-02-11T16:20:36;148.32;;;137.32;;
25932;SDS011;13731;51.166;4.474;2023-02-11T16:23:02;144.20;;;133.57;;
25932;SDS011;13731;51.166;4.474;2023-02-11T16:25:30;151.25;;;140.43;;
25932;SDS011;13731;51.166;4.474;2023-02-11T16:27:58;149.98;;;139.25;;
25932;SDS011;13731;51.166;4.474;2023-02-11T16:30:26;146.25;;;135.43;;
25932;SDS011;13731;51.166;4.474;2023-02-11T16:32:56;141.52;;;131.07;;
25932;SDS011;13731;51.166;4.474;2023-02-11T16:35:22;139.27;;;128.70;;
25932;SDS011;13731;51.166;4.474;2023-02-11T16:37:48;149.38;;;138.25;;
25932;SDS011;13731;51.166;4.474;2023-02-11T16:40:14;146.35;;;136.05;;
25932;SDS011;13731;51.166;4.474;2023-02-11T16:42:40;155.15;;;144.00;;
25932;SDS011;13731;51.166;4.474;2023-02-11T16:45:06;135.80;;;125.60;;
25932;SDS011;13731;51.166;4.474;2023-02-11T16:47:32;141.43;;;130.80;;
25932;SDS011;13731;51.166;4.474;2023-02-11T16:49:59;143.70;;;132.52;;
25932;SDS011;13731;51.166;4.474;2023-02-11T16:52:26;142.43;;;132.05;;
25932;SDS011;13731;51.166;4.474;2023-02-11T16:54:55;149.32;;;138.40;;
25932;SDS011;13731;51.166;4.474;2023-02-11T16:57:22;139.73;;;129.40;;
25932;SDS011;13731;51.166;4.474;2023-02-11T16:59:50;138.15;;;127.95;;
25932;SDS011;13731;51.166;4.474;2023-02-11T17:02:29;139.55;;;129.60;;
25932;SDS011;13731;51.166;4.474;2023-02-11T17:04:58;150.57;;;139.77;;
25932;SDS011;13731;51.166;4.474;2023-02-11T17:07:26;148.43;;;136.95;;
25932;SDS011;13731;51.166;4.474;2023-02-11T17:09:53;147.23;;;136.32;;
25932;SDS011;13731;51.166;4.474;2023-02-11T17:12:19;142.60;;;131.77;;
25932;SDS011;13731;51.166;4.474;2023-02-11T17:14:45;149.10;;;138.38;;
25932;SDS011;13731;51.166;4.474;2023-02-11T17:17:11;139.00;;;128.63;;
25932;SDS011;13731;51.166;4.474;2023-02-11T17:19:38;135.05;;;125.32;;
25932;SDS011;13731;51.166;4.474;2023-02-11T17:22:04;145.45;;;134.38;;
25932;SDS011;13731;51.166;4.474;2023-02-11T17:24:30;146.50;;;135.68;;
25932;SDS011;13731;51.166;4.474;2023-02-11T17:26:56;139.10;;;129.10;;
25932;SDS011;13731;51.166;4.474;2023-02-11T17:29:23;137.57;;;126.70;;